createdAt,value
2022-11-03T00:00:39.847Z,74.73
2022-11-03T00:01:40.001Z,75.01
2022-11-03T00:03:33.065Z,75.30
2022-11-03T00:04:33.061Z,74.92
2022-11-03T00:06:26.050Z,75.40
2022-11-03T00:07:26.076Z,75.01
2022-11-03T00:09:19.239Z,74.73
2022-11-03T00:10:19.264Z,74.92
2022-11-03T00:12:23.368Z,75.01
2022-11-03T00:13:23.367Z,75.68
2022-11-03T00:15:16.558Z,75.01
2022-11-03T00:16:16.550Z,75.11
2022-11-03T00:18:20.617Z,75.40
2022-11-03T00:19:20.646Z,75.40
2022-11-03T00:21:24.723Z,75.40
2022-11-03T00:22:24.748Z,75.78
2022-11-03T00:24:17.913Z,76.06
2022-11-03T00:25:17.933Z,76.06
2022-11-03T00:27:10.942Z,75.68
2022-11-03T00:28:10.939Z,75.78
2022-11-03T00:30:14.998Z,76.06
2022-11-03T00:31:15.017Z,75.87
2022-11-03T00:33:08.630Z,75.78
2022-11-03T00:34:08.201Z,76.16
2022-11-03T00:36:12.304Z,76.25
2022-11-03T00:37:12.303Z,76.25
2022-11-03T00:39:05.594Z,76.16
2022-11-03T00:40:05.625Z,76.25
2022-11-03T00:41:58.778Z,76.16
2022-11-03T00:42:58.815Z,76.25
2022-11-03T00:44:51.966Z,76.40
2022-11-03T00:45:51.993Z,77.01
2022-11-03T00:47:45.210Z,76.44
2022-11-03T00:48:45.186Z,76.54
2022-11-03T00:50:38.379Z,76.82
2022-11-03T00:51:38.373Z,76.88
2022-11-03T00:53:31.537Z,77.26
2022-11-03T00:54:31.564Z,77.55
2022-11-03T00:56:24.556Z,77.07
2022-11-03T00:57:24.568Z,77.36
2022-11-03T00:59:28.666Z,77.64
2022-11-03T01:00:28.662Z,78.12
2022-11-03T01:02:21.852Z,77.83
2022-11-03T01:03:21.854Z,77.55
2022-11-03T01:05:15.013Z,78.03
2022-11-03T01:06:15.040Z,78.22
2022-11-03T01:08:08.200Z,78.22
2022-11-03T01:09:08.227Z,78.22
2022-11-03T01:11:01.397Z,78.03
2022-11-03T01:12:01.426Z,78.41
2022-11-03T01:13:54.585Z,78.50
2022-11-03T01:14:54.609Z,78.41
2022-11-03T01:16:47.581Z,77.83
2022-11-03T01:17:47.608Z,78.50
2022-11-03T01:19:40.781Z,78.41
2022-11-03T01:20:40.801Z,78.59
2022-11-03T01:22:33.965Z,78.41
2022-11-03T01:23:33.986Z,78.22
2022-11-03T01:25:27.172Z,78.69
2022-11-03T01:26:27.169Z,78.88
2022-11-03T01:28:20.336Z,78.78
2022-11-03T01:29:20.385Z,79.27
2022-11-03T01:31:13.526Z,79.46
2022-11-03T01:32:13.561Z,79.74
2022-11-03T01:34:06.708Z,79.64
2022-11-03T01:35:06.735Z,79.64
2022-11-03T01:36:59.724Z,79.93
2022-11-03T01:37:59.747Z,80.41
2022-11-03T01:40:03.872Z,80.12
2022-11-03T01:41:03.862Z,80.60
2022-11-03T01:42:57.024Z,80.31
2022-11-03T01:43:57.050Z,80.65
2022-11-03T01:46:01.111Z,81.32
2022-11-03T01:47:01.137Z,81.60
2022-11-03T01:48:54.296Z,81.70
2022-11-03T01:49:54.321Z,81.17
2022-11-03T01:51:58.416Z,80.55
2022-11-03T01:52:58.413Z,80.84
2022-11-03T01:54:51.574Z,80.55
2022-11-03T01:55:51.598Z,80.88
2022-11-03T01:57:55.698Z,80.65
2022-11-03T01:58:55.679Z,80.46
2022-11-03T02:00:48.933Z,80.88
2022-11-03T02:01:49.123Z,80.46
2022-11-03T02:03:42.061Z,80.75
2022-11-03T02:04:42.049Z,80.65
2022-11-03T02:06:35.031Z,80.75
2022-11-03T02:07:35.062Z,81.41
2022-11-03T02:09:39.116Z,81.13
2022-11-03T02:10:39.137Z,81.70
2022-11-03T02:12:32.298Z,81.79
2022-11-03T02:13:32.323Z,81.79
2022-11-03T02:15:25.485Z,81.79
2022-11-03T02:16:25.509Z,81.70
2022-11-03T02:18:18.668Z,81.70
2022-11-03T02:19:18.705Z,81.79
2022-11-03T02:21:22.782Z,82.46
2022-11-03T02:22:22.778Z,82.56
2022-11-03T02:24:26.832Z,81.98
2022-11-03T02:25:26.857Z,82.65
2022-11-03T02:27:20.019Z,82.84
2022-11-03T02:28:20.044Z,82.46
2022-11-03T02:30:24.127Z,83.32
2022-11-03T02:31:24.150Z,83.61
2022-11-03T02:33:18.696Z,83.22
2022-11-03T02:34:18.725Z,83.85
2022-11-03T02:36:22.810Z,83.18
2022-11-03T02:37:22.826Z,83.18
2022-11-03T02:39:16.004Z,83.18
2022-11-03T02:40:16.029Z,83.85
2022-11-03T02:42:09.227Z,82.99
2022-11-03T02:43:09.359Z,83.22
2022-11-03T02:45:02.417Z,83.51
2022-11-03T02:46:02.433Z,83.56
2022-11-03T02:48:06.480Z,83.41
2022-11-03T02:49:06.509Z,83.65
2022-11-03T02:51:10.588Z,82.99
2022-11-03T02:52:10.610Z,83.37
2022-11-03T02:53:10.639Z,83.47
2022-11-03T02:54:10.672Z,82.90
2022-11-03T02:55:10.701Z,82.99
2022-11-03T02:56:10.731Z,83.28
2022-11-03T02:57:10.762Z,82.90
2022-11-03T02:58:10.792Z,82.80
2022-11-03T02:59:10.821Z,82.90
2022-11-03T03:00:10.857Z,82.99
2022-11-03T03:01:10.966Z,82.84
2022-11-03T03:02:11.091Z,83.56
2022-11-03T03:03:10.945Z,83.37
2022-11-03T03:04:10.976Z,82.99
2022-11-03T03:05:11.008Z,83.37
2022-11-03T03:06:11.035Z,83.37
2022-11-03T03:07:11.074Z,82.99
2022-11-03T03:08:11.099Z,83.37
2022-11-03T03:09:11.128Z,83.37
2022-11-03T03:10:11.158Z,83.28
2022-11-03T03:11:11.192Z,83.28
2022-11-03T03:12:11.236Z,83.47
2022-11-03T03:13:11.256Z,83.65
2022-11-03T03:14:11.282Z,83.37
2022-11-03T03:15:11.314Z,83.37
2022-11-03T03:16:11.343Z,83.47
2022-11-03T03:17:11.374Z,83.65
2022-11-03T03:18:11.432Z,83.28
2022-11-03T03:19:11.436Z,83.47
2022-11-03T03:20:11.467Z,83.28
2022-11-03T03:21:11.501Z,83.18
2022-11-03T03:22:11.527Z,82.99
2022-11-03T03:23:11.916Z,83.28
2022-11-03T03:24:11.593Z,83.28
2022-11-03T03:26:43.489Z,83.37
2022-11-03T03:27:43.516Z,83.75
2022-11-03T03:29:47.593Z,82.61
2022-11-03T03:30:47.619Z,82.70
2022-11-03T03:32:40.809Z,82.90
2022-11-03T03:33:43.478Z,83.18
2022-11-03T03:35:33.959Z,82.61
2022-11-03T03:36:33.989Z,82.61
2022-11-03T03:38:27.179Z,83.75
2022-11-03T03:39:27.175Z,83.09
2022-11-03T03:41:20.329Z,82.80
2022-11-03T03:42:20.358Z,82.80
2022-11-03T03:44:24.532Z,83.37
2022-11-03T03:45:24.450Z,83.09
2022-11-03T03:47:28.556Z,83.65
2022-11-03T03:48:28.531Z,82.99
2022-11-03T03:50:21.690Z,82.90
2022-11-03T03:51:21.716Z,82.90
2022-11-03T03:53:14.910Z,82.90
2022-11-03T03:54:14.898Z,82.90
2022-11-03T03:56:08.074Z,82.51
2022-11-03T03:57:08.088Z,82.90
2022-11-03T03:59:01.291Z,82.90
2022-11-03T04:00:01.272Z,82.80
2022-11-03T04:01:54.594Z,82.70
2022-11-03T04:02:54.477Z,82.61
2022-11-03T04:04:47.635Z,83.85
2022-11-03T04:05:47.661Z,82.90
2022-11-03T04:07:43.617Z,82.90
2022-11-03T04:08:40.844Z,82.80
2022-11-03T04:10:34.013Z,83.75
2022-11-03T04:11:34.040Z,83.56
2022-11-03T04:13:27.196Z,83.28
2022-11-03T04:14:27.222Z,83.65
2022-11-03T04:16:20.191Z,83.75
2022-11-03T04:17:20.214Z,83.85
2022-11-03T04:19:24.286Z,83.65
2022-11-03T04:20:24.312Z,83.37
2022-11-03T04:22:17.476Z,83.75
2022-11-03T04:23:17.501Z,83.56
2022-11-03T04:25:10.687Z,83.65
2022-11-03T04:26:10.683Z,83.85
2022-11-03T04:28:04.402Z,83.56
2022-11-03T04:29:03.859Z,83.85
2022-11-03T04:30:58.773Z,83.28
2022-11-03T04:31:57.047Z,83.37
2022-11-03T04:33:50.208Z,83.47
2022-11-03T04:34:50.230Z,83.37
2022-11-03T04:36:43.211Z,83.28
2022-11-03T04:37:47.379Z,83.47
2022-11-03T04:39:36.468Z,83.56
2022-11-03T04:40:36.421Z,83.18
2022-11-03T04:42:40.509Z,83.47
2022-11-03T04:43:40.532Z,83.28
2022-11-03T04:45:44.588Z,83.28
2022-11-03T04:46:44.614Z,83.28
2022-11-03T04:48:37.810Z,83.47
2022-11-03T04:49:37.799Z,83.65
2022-11-03T04:51:30.991Z,83.37
2022-11-03T04:52:30.982Z,83.18
2022-11-03T04:54:35.041Z,83.37
2022-11-03T04:55:35.063Z,83.28
2022-11-03T04:57:39.120Z,83.28
2022-11-03T04:58:39.143Z,83.47
2022-11-03T05:00:32.306Z,83.65
2022-11-03T05:01:32.534Z,83.56
2022-11-03T05:03:25.518Z,83.94
2022-11-03T05:04:25.519Z,83.94
2022-11-03T05:06:18.499Z,83.94
2022-11-03T05:07:18.526Z,83.94
2022-11-03T05:09:11.715Z,84.04
2022-11-03T05:10:11.705Z,83.65
2022-11-03T05:12:04.863Z,83.85
2022-11-03T05:13:05.190Z,84.23
2022-11-03T05:14:58.937Z,84.13
2022-11-03T05:15:58.076Z,84.42
2022-11-03T05:17:51.323Z,84.13
2022-11-03T05:18:51.348Z,84.04
2022-11-03T05:20:44.510Z,83.65
2022-11-03T05:21:44.531Z,84.52
2022-11-03T05:23:44.842Z,84.42
2022-11-03T05:24:37.712Z,84.80
2022-11-03T05:26:30.740Z,84.99
2022-11-03T05:27:30.734Z,85.18
2022-11-03T05:29:34.806Z,85.28
2022-11-03T05:30:34.797Z,85.18
2022-11-03T05:32:38.830Z,84.99
2022-11-03T05:33:38.858Z,85.08
2022-11-03T05:35:42.889Z,85.28
2022-11-03T05:36:42.923Z,85.28
2022-11-03T05:38:35.910Z,84.61
2022-11-03T05:39:35.931Z,84.99
2022-11-03T05:41:51.055Z,84.80
2022-11-03T05:42:51.077Z,84.70
2022-11-03T05:44:44.029Z,84.61
2022-11-03T05:45:44.050Z,84.33
2022-11-03T05:46:44.080Z,84.33
2022-11-03T05:47:44.114Z,84.13
2022-11-03T05:48:44.140Z,84.89
2022-11-03T05:49:44.172Z,84.52
2022-11-03T05:50:44.201Z,84.47
2022-11-03T05:51:44.234Z,84.47
2022-11-03T05:52:44.261Z,84.52
2022-11-03T05:53:44.293Z,84.89
2022-11-03T05:54:44.322Z,84.61
2022-11-03T05:55:44.354Z,84.76
2022-11-03T05:56:44.395Z,84.85
2022-11-03T05:57:44.414Z,84.89
2022-11-03T05:58:44.443Z,84.89
2022-11-03T05:59:44.478Z,84.56
2022-11-03T06:00:48.614Z,84.70
2022-11-03T06:01:44.644Z,84.99
2022-11-03T06:02:44.615Z,85.04
2022-11-03T06:03:44.595Z,84.95
2022-11-03T06:04:44.625Z,84.85
2022-11-03T06:05:44.657Z,85.04
2022-11-03T06:06:44.687Z,84.95
2022-11-03T06:07:44.718Z,85.14
2022-11-03T06:08:46.055Z,85.24
2022-11-03T06:09:44.779Z,85.33
2022-11-03T06:10:44.809Z,85.28
2022-11-03T06:11:44.838Z,84.80
2022-11-03T06:12:44.868Z,85.18
2022-11-03T06:13:44.899Z,85.08
2022-11-03T06:14:44.929Z,85.24
2022-11-03T06:15:44.960Z,84.61
2022-11-03T06:16:44.989Z,84.70
2022-11-03T06:17:45.025Z,84.70
2022-11-03T06:18:45.050Z,85.28
2022-11-03T06:19:45.082Z,84.66
2022-11-03T06:20:45.111Z,85.80
2022-11-03T06:21:45.142Z,86.28
2022-11-03T06:22:45.172Z,85.90
2022-11-03T06:23:45.203Z,86.47
2022-11-03T06:24:45.231Z,85.90
2022-11-03T06:25:45.265Z,85.61
2022-11-03T06:26:45.295Z,85.61
2022-11-03T06:27:45.324Z,85.71
2022-11-03T06:28:45.357Z,85.61
2022-11-03T06:29:45.385Z,85.71
2022-11-03T06:30:45.426Z,85.33
2022-11-03T06:31:45.446Z,85.37
2022-11-03T06:32:45.475Z,85.18
2022-11-03T06:33:45.506Z,85.52
2022-11-03T06:34:45.535Z,85.08
2022-11-03T06:35:45.569Z,85.33
2022-11-03T06:36:45.598Z,85.61
2022-11-03T06:37:45.629Z,85.56
2022-11-03T06:38:45.657Z,85.47
2022-11-03T06:39:45.687Z,84.99
2022-11-03T06:40:45.717Z,85.18
2022-11-03T06:41:45.749Z,85.56
2022-11-03T06:42:45.778Z,85.47
2022-11-03T06:43:45.810Z,85.42
2022-11-03T06:44:45.837Z,85.33
2022-11-03T06:45:45.870Z,85.61
2022-11-03T06:46:45.903Z,85.33
2022-11-03T06:47:45.930Z,85.24
2022-11-03T06:48:45.963Z,84.99
2022-11-03T06:49:45.990Z,85.28
2022-11-03T06:50:46.021Z,85.37
2022-11-03T06:51:46.052Z,85.08
2022-11-03T06:52:46.115Z,85.18
2022-11-03T06:53:46.115Z,85.18
2022-11-03T06:54:46.142Z,85.28
2022-11-03T06:55:46.173Z,84.76
2022-11-03T06:56:46.200Z,85.18
2022-11-03T06:57:46.247Z,85.28
2022-11-03T06:58:46.262Z,85.47
2022-11-03T06:59:46.294Z,85.08
2022-11-03T07:00:50.991Z,85.37
2022-11-03T07:01:46.525Z,84.99
2022-11-03T07:02:46.386Z,85.14
2022-11-03T07:03:46.417Z,84.89
2022-11-03T07:04:46.444Z,85.47
2022-11-03T07:05:46.479Z,85.18
2022-11-03T07:06:50.502Z,85.18
2022-11-03T07:07:46.544Z,84.99
2022-11-03T07:08:46.568Z,85.28
2022-11-03T07:09:46.598Z,85.18
2022-11-03T07:10:46.626Z,84.89
2022-11-03T07:11:46.659Z,84.85
2022-11-03T07:12:46.688Z,85.14
2022-11-03T07:13:46.723Z,85.37
2022-11-03T07:14:46.750Z,84.80
2022-11-03T07:15:46.781Z,85.75
2022-11-03T07:16:46.811Z,85.28
2022-11-03T07:17:46.842Z,85.18
2022-11-03T07:18:46.873Z,85.66
2022-11-03T07:19:46.900Z,85.28
2022-11-03T07:20:46.931Z,84.80
2022-11-03T07:21:46.964Z,84.89
2022-11-03T07:22:46.992Z,85.08
2022-11-03T07:23:47.389Z,85.18
2022-11-03T07:24:47.053Z,84.80
2022-11-03T07:25:47.083Z,84.61
2022-11-03T07:26:47.113Z,84.61
2022-11-03T07:27:47.143Z,85.08
2022-11-03T07:28:47.177Z,84.70
2022-11-03T07:29:47.204Z,84.52
2022-11-03T07:30:47.235Z,84.70
2022-11-03T07:31:47.263Z,84.80
2022-11-03T07:32:47.295Z,84.52
2022-11-03T07:33:47.328Z,84.80
2022-11-03T07:34:47.356Z,84.89
2022-11-03T07:36:13.692Z,84.70
2022-11-03T07:36:51.347Z,84.89
2022-11-03T07:37:47.452Z,84.61
2022-11-03T07:38:47.481Z,84.52
2022-11-03T07:39:47.511Z,84.33
2022-11-03T07:40:47.538Z,85.18
2022-11-03T07:41:47.576Z,84.70
2022-11-03T07:42:47.601Z,84.70
2022-11-03T07:43:47.632Z,84.52
2022-11-03T07:44:47.662Z,84.42
2022-11-03T07:45:47.692Z,84.33
2022-11-03T07:46:47.721Z,84.13
2022-11-03T07:47:47.753Z,84.42
2022-11-03T07:48:47.790Z,84.89
2022-11-03T07:49:47.812Z,84.52
2022-11-03T07:50:47.849Z,84.89
2022-11-03T07:51:47.874Z,84.89
2022-11-03T07:52:47.905Z,83.94
2022-11-03T07:53:47.938Z,83.94
2022-11-03T07:54:47.990Z,84.17
2022-11-03T07:55:48.084Z,84.04
2022-11-03T07:56:48.027Z,84.27
2022-11-03T07:57:48.058Z,84.08
2022-11-03T07:58:48.088Z,83.98
2022-11-03T07:59:48.122Z,83.80
2022-11-03T08:00:48.150Z,84.08
2022-11-03T08:01:48.253Z,83.98
2022-11-03T08:02:48.283Z,83.89
2022-11-03T08:03:48.244Z,83.32
2022-11-03T08:04:48.272Z,83.70
2022-11-03T08:05:48.305Z,84.17
2022-11-03T08:06:48.334Z,83.51
2022-11-03T08:07:48.364Z,83.80
2022-11-03T08:08:48.405Z,82.56
2022-11-03T08:09:48.426Z,82.75
2022-11-03T08:10:48.458Z,82.46
2022-11-03T08:11:48.488Z,82.46
2022-11-03T08:12:48.522Z,82.75
2022-11-03T08:13:48.549Z,83.03
2022-11-03T08:14:48.579Z,83.03
2022-11-03T08:15:48.611Z,83.03
2022-11-03T08:16:48.640Z,82.84
2022-11-03T08:17:52.113Z,83.22
2022-11-03T08:18:48.707Z,82.93
2022-11-03T08:19:48.734Z,83.03
2022-11-03T08:20:48.763Z,82.65
2022-11-03T08:21:48.795Z,81.79
2022-11-03T08:22:59.264Z,81.79
2022-11-03T08:23:48.856Z,81.70
2022-11-03T08:24:48.889Z,81.89
2022-11-03T08:25:48.922Z,81.60
2022-11-03T08:26:49.200Z,81.70
2022-11-03T08:27:48.986Z,81.70
2022-11-03T08:28:49.010Z,81.70
2022-11-03T08:29:49.043Z,81.41
2022-11-03T08:30:49.073Z,81.70
2022-11-03T08:31:49.122Z,81.84
2022-11-03T08:32:49.135Z,81.65
2022-11-03T08:33:49.168Z,81.46
2022-11-03T08:34:49.205Z,81.74
2022-11-03T08:35:49.228Z,81.65
2022-11-03T08:36:49.257Z,81.74
2022-11-03T08:37:49.290Z,81.55
2022-11-03T08:38:49.322Z,81.84
2022-11-03T08:39:49.350Z,81.74
2022-11-03T08:40:54.232Z,81.07
2022-11-03T08:41:49.451Z,81.26
2022-11-03T08:42:49.462Z,80.73
2022-11-03T08:43:49.478Z,80.69
2022-11-03T08:44:49.505Z,80.07
2022-11-03T08:45:49.536Z,79.97
2022-11-03T08:46:49.569Z,80.35
2022-11-03T08:47:49.599Z,79.30
2022-11-03T08:48:49.632Z,78.92
2022-11-03T08:49:49.660Z,78.35
2022-11-03T08:50:49.692Z,78.92
2022-11-03T08:51:49.722Z,78.54
2022-11-03T08:52:49.755Z,78.96
2022-11-03T08:53:49.789Z,78.49
2022-11-03T08:54:49.870Z,78.10
2022-11-03T08:55:49.848Z,77.34
2022-11-03T08:56:49.880Z,76.77
2022-11-03T08:57:49.912Z,77.53
2022-11-03T08:58:49.947Z,76.86
2022-11-03T08:59:49.974Z,76.86
2022-11-03T09:00:50.029Z,77.15
2022-11-03T09:01:50.090Z,76.48
2022-11-03T09:02:50.069Z,77.34
2022-11-03T09:03:50.151Z,76.10
2022-11-03T09:04:50.132Z,75.81
2022-11-03T09:05:50.164Z,75.53
2022-11-03T09:06:50.197Z,75.62
2022-11-03T09:10:50.322Z,74.13
2022-11-03T09:11:50.351Z,74.52
2022-11-03T09:12:50.385Z,74.32
2022-11-03T09:13:50.415Z,73.50
2022-11-03T09:14:50.530Z,72.93
2022-11-03T09:15:50.482Z,72.83
2022-11-03T09:16:50.568Z,72.26
2022-11-03T09:17:50.546Z,72.64
2022-11-03T09:18:50.579Z,72.93
2022-11-03T09:19:50.608Z,72.55
2022-11-03T09:20:50.645Z,71.53
2022-11-03T09:21:50.674Z,71.06
2022-11-03T09:22:50.707Z,70.87
2022-11-03T09:23:50.737Z,70.48
2022-11-03T09:24:50.772Z,70.58
2022-11-03T09:25:50.803Z,70.77
2022-11-03T09:26:50.837Z,70.01
2022-11-03T09:27:50.870Z,69.82
2022-11-03T09:28:50.903Z,69.95
2022-11-03T09:30:11.745Z,69.85
2022-11-03T09:30:50.967Z,69.85
2022-11-03T09:31:50.999Z,69.18
2022-11-03T09:32:51.033Z,69.18
2022-11-03T09:33:51.064Z,68.35
2022-11-03T09:34:51.099Z,68.26
2022-11-03T09:35:51.129Z,67.88
2022-11-03T09:36:53.332Z,67.40
2022-11-03T09:37:51.196Z,66.83
2022-11-03T09:38:51.230Z,66.83
2022-11-03T09:39:51.262Z,66.16
2022-11-03T09:40:51.297Z,65.23
2022-11-03T09:41:58.099Z,64.69
2022-11-03T09:42:51.359Z,64.22
2022-11-03T09:43:51.391Z,62.17
2022-11-03T09:44:51.427Z,61.27
2022-11-03T09:45:51.458Z,58.87
2022-11-03T09:46:55.409Z,57.95
2022-11-03T09:47:51.524Z,55.41
2022-11-03T09:48:51.560Z,53.78
2022-11-03T09:49:51.589Z,54.61
2022-11-03T09:50:51.625Z,54.39
2022-11-03T09:51:51.655Z,55.45
2022-11-03T09:52:51.921Z,55.90
2022-11-03T09:53:51.726Z,56.86
2022-11-03T09:54:51.756Z,57.34
2022-11-03T09:55:51.789Z,56.48
2022-11-03T09:56:51.822Z,56.96
2022-11-03T09:57:51.855Z,57.06
2022-11-03T09:58:54.521Z,57.72
2022-11-03T09:59:51.920Z,56.02
2022-11-03T10:00:51.992Z,55.74
2022-11-03T10:01:52.080Z,55.77
2022-11-03T10:02:52.028Z,55.47
2022-11-03T10:03:52.056Z,55.02
2022-11-03T10:04:52.133Z,54.06
2022-11-03T10:05:52.119Z,53.13
2022-11-03T10:06:52.154Z,52.17
2022-11-03T10:07:52.240Z,53.16
2022-11-03T10:08:52.222Z,53.83
2022-11-03T10:09:52.255Z,52.80
2022-11-03T10:10:52.292Z,52.61
2022-11-03T10:11:52.323Z,53.02
2022-11-03T10:12:52.358Z,51.96
2022-11-03T10:13:52.392Z,51.19
2022-11-03T10:14:52.431Z,52.25
2022-11-03T10:15:52.464Z,50.68
2022-11-03T10:16:53.561Z,51.07
2022-11-03T10:17:52.535Z,51.17
2022-11-03T10:18:52.570Z,51.64
2022-11-03T10:19:52.606Z,52.00
2022-11-03T10:20:52.647Z,52.20
2022-11-03T10:21:52.678Z,51.62
2022-11-03T10:22:52.726Z,51.72
2022-11-03T10:23:52.750Z,50.95
2022-11-03T10:24:52.789Z,51.74
2022-11-03T10:25:52.825Z,51.17
2022-11-03T10:26:52.864Z,52.42
2022-11-03T10:27:52.898Z,52.80
2022-11-03T10:28:52.936Z,50.87
2022-11-03T10:29:57.918Z,52.70
2022-11-03T10:31:13.713Z,51.64
2022-11-03T10:31:53.044Z,52.20
2022-11-03T10:32:53.083Z,52.10
2022-11-03T10:33:53.122Z,52.77
2022-11-03T10:34:53.159Z,53.06
2022-11-03T10:35:53.201Z,52.75
2022-11-03T10:36:53.230Z,52.46
2022-11-03T10:37:53.268Z,52.62
2022-11-03T10:38:53.305Z,53.30
2022-11-03T10:39:53.339Z,53.49
2022-11-03T10:40:53.378Z,54.06
2022-11-03T10:41:53.414Z,53.68
2022-11-03T10:42:53.451Z,53.56
2022-11-03T10:43:53.488Z,53.75
2022-11-03T10:44:53.534Z,54.52
2022-11-03T10:45:53.562Z,54.71
2022-11-03T10:46:53.598Z,54.61
2022-11-03T10:47:58.058Z,54.71
2022-11-03T10:48:53.720Z,54.33
2022-11-03T10:49:53.714Z,54.80
2022-11-03T10:50:53.746Z,54.97
2022-11-03T10:51:53.783Z,55.93
2022-11-03T10:52:53.818Z,55.83
2022-11-03T10:53:53.853Z,55.45
2022-11-03T10:54:53.892Z,55.45
2022-11-03T10:55:53.926Z,55.35
2022-11-03T10:56:53.976Z,56.51
2022-11-03T10:57:54.002Z,56.31
2022-11-03T10:58:54.089Z,56.41
2022-11-03T10:59:54.071Z,56.60
2022-11-03T11:00:54.198Z,56.67
2022-11-03T11:01:54.257Z,57.06
2022-11-03T11:02:54.179Z,57.15
2022-11-03T11:03:54.288Z,57.43
2022-11-03T11:04:54.257Z,57.63
2022-11-03T11:05:54.288Z,59.36
2022-11-03T11:06:54.328Z,59.42
2022-11-03T11:07:54.412Z,58.84
2022-11-03T11:08:58.877Z,58.27
2022-11-03T11:09:54.433Z,58.91
2022-11-03T11:10:54.467Z,59.87
2022-11-03T11:11:54.501Z,59.77
2022-11-03T11:12:54.539Z,60.44
2022-11-03T11:13:54.571Z,60.99
2022-11-03T11:14:54.609Z,61.37
2022-11-03T11:15:54.647Z,61.66
2022-11-03T11:16:54.679Z,62.33
2022-11-03T11:17:54.712Z,62.71
2022-11-03T11:18:54.749Z,63.00
2022-11-03T11:19:54.783Z,63.26
2022-11-03T11:20:54.818Z,63.83
2022-11-03T11:21:54.854Z,64.02
2022-11-03T11:22:54.889Z,64.59
2022-11-03T11:23:54.923Z,64.22
2022-11-03T11:24:54.959Z,64.31
2022-11-03T11:25:54.994Z,64.12
2022-11-03T11:26:55.030Z,64.31
2022-11-03T11:27:57.965Z,64.40
2022-11-03T11:28:55.097Z,64.69
2022-11-03T11:29:55.135Z,64.98
2022-11-03T11:30:55.171Z,65.17
2022-11-03T11:31:55.202Z,65.42
2022-11-03T11:32:55.237Z,65.23
2022-11-03T11:33:55.273Z,64.85
2022-11-03T11:34:55.306Z,65.52
2022-11-03T11:35:59.081Z,65.61
2022-11-03T11:36:55.382Z,66.19
2022-11-03T11:37:55.409Z,65.81
2022-11-03T11:38:55.478Z,65.81
2022-11-03T11:39:55.482Z,66.57
2022-11-03T11:40:55.514Z,66.76
2022-11-03T11:41:55.546Z,66.92
2022-11-03T11:42:55.583Z,67.40
2022-11-03T11:43:55.612Z,67.30
2022-11-03T11:44:55.652Z,67.30
2022-11-03T11:45:55.683Z,67.78
2022-11-03T11:46:55.718Z,67.78
2022-11-03T11:47:55.751Z,67.78
2022-11-03T11:48:55.786Z,67.69
2022-11-03T11:49:55.819Z,67.69
2022-11-03T11:50:55.859Z,68.07
2022-11-03T11:51:55.887Z,68.26
2022-11-03T11:52:55.922Z,67.49
2022-11-03T11:54:16.607Z,67.88
2022-11-03T11:54:55.991Z,68.16
2022-11-03T11:55:56.042Z,68.55
2022-11-03T11:56:56.058Z,68.64
2022-11-03T11:57:56.090Z,68.64
2022-11-03T11:58:56.126Z,68.93
2022-11-03T11:59:56.158Z,68.93
2022-11-03T12:00:56.192Z,68.16
2022-11-03T12:01:56.383Z,68.26
2022-11-03T12:02:56.262Z,67.97
2022-11-03T12:03:56.425Z,68.74
2022-11-03T12:04:56.328Z,68.45
2022-11-03T12:05:56.361Z,67.69
2022-11-03T12:06:56.401Z,67.88
2022-11-03T12:07:56.432Z,67.88
2022-11-03T12:08:56.474Z,67.69
2022-11-03T12:09:56.504Z,67.78
2022-11-03T12:10:56.588Z,67.78
2022-11-03T12:11:57.709Z,68.55
2022-11-03T12:12:56.597Z,68.41
2022-11-03T12:13:56.628Z,68.32
2022-11-03T12:14:56.671Z,68.64
2022-11-03T12:15:56.702Z,68.64
2022-11-03T12:16:56.748Z,68.93
2022-11-03T12:17:56.764Z,68.80
2022-11-03T12:18:56.799Z,68.80
2022-11-03T12:19:56.831Z,68.70
2022-11-03T12:20:56.865Z,68.93
2022-11-03T12:21:56.896Z,69.09
2022-11-03T12:22:56.936Z,68.90
2022-11-03T12:23:56.965Z,69.12
2022-11-03T12:24:56.998Z,69.27
2022-11-03T12:25:57.031Z,69.09
2022-11-03T12:26:57.065Z,69.18
2022-11-03T12:27:57.101Z,68.90
2022-11-03T12:28:57.133Z,68.70
2022-11-03T12:29:57.164Z,69.09
2022-11-03T12:30:57.250Z,68.99
2022-11-03T12:31:57.231Z,69.37
2022-11-03T12:32:57.266Z,69.37
2022-11-03T12:33:57.303Z,69.12
2022-11-03T12:34:57.332Z,69.09
2022-11-03T12:35:57.365Z,68.90
2022-11-03T12:36:57.400Z,69.18
2022-11-03T12:37:57.433Z,68.93
2022-11-03T12:38:57.465Z,69.12
2022-11-03T12:39:57.498Z,68.84
2022-11-03T12:40:57.542Z,69.50
2022-11-03T12:41:57.566Z,69.60
2022-11-03T12:42:57.601Z,69.12
2022-11-03T12:43:57.773Z,68.93
2022-11-03T12:44:57.665Z,68.74
2022-11-03T12:45:57.700Z,68.90
2022-11-03T12:46:57.734Z,68.61
2022-11-03T12:47:57.765Z,68.51
2022-11-03T12:48:57.869Z,69.18
2022-11-03T12:49:57.833Z,68.90
2022-11-03T12:50:57.866Z,69.47
2022-11-03T12:51:57.926Z,69.56
2022-11-03T12:52:57.934Z,69.47
2022-11-03T12:53:57.970Z,69.56
2022-11-03T12:54:57.999Z,70.14
2022-11-03T12:55:58.033Z,69.37
2022-11-03T12:56:58.077Z,69.56
2022-11-03T12:57:58.099Z,69.47
2022-11-03T12:58:58.134Z,68.99
2022-11-03T12:59:58.167Z,68.70
2022-11-03T13:01:01.778Z,68.61
2022-11-03T13:01:58.409Z,68.70
2022-11-03T13:02:58.373Z,69.27
2022-11-03T13:03:58.299Z,69.37
2022-11-03T13:04:58.331Z,68.70
2022-11-03T13:05:58.365Z,68.70
2022-11-03T13:06:58.399Z,69.37
2022-11-03T13:07:58.432Z,69.27
2022-11-03T13:08:58.465Z,69.27
2022-11-03T13:09:58.501Z,69.18
2022-11-03T13:10:58.530Z,69.09
2022-11-03T13:11:58.564Z,69.18
2022-11-03T13:12:58.597Z,68.41
2022-11-03T13:13:58.631Z,69.27
2022-11-03T13:14:58.665Z,68.99
2022-11-03T13:15:58.718Z,69.09
2022-11-03T13:16:58.731Z,69.09
2022-11-03T13:18:12.812Z,68.99
2022-11-03T13:18:58.797Z,69.37
2022-11-03T13:19:58.999Z,69.56
2022-11-03T13:20:58.863Z,69.95
2022-11-03T13:21:58.920Z,68.90
2022-11-03T13:22:58.941Z,69.27
2022-11-03T13:23:58.974Z,69.31
2022-11-03T13:24:58.995Z,69.12
2022-11-03T13:25:59.084Z,69.21
2022-11-03T13:26:59.066Z,69.31
2022-11-03T13:27:59.096Z,69.50
2022-11-03T13:28:59.133Z,69.12
2022-11-03T13:29:59.162Z,69.12
2022-11-03T13:30:59.218Z,69.41
2022-11-03T13:31:59.236Z,69.21
2022-11-03T13:32:59.268Z,68.64
2022-11-03T13:33:59.297Z,68.64
2022-11-03T13:34:59.329Z,68.96
2022-11-03T13:35:59.466Z,67.63
2022-11-03T13:36:59.397Z,67.53
2022-11-03T13:37:59.431Z,67.43
2022-11-03T13:38:59.474Z,67.34
2022-11-03T13:39:59.499Z,67.34
2022-11-03T13:41:05.292Z,67.53
2022-11-03T13:41:59.565Z,67.53
2022-11-03T13:42:59.608Z,67.72
2022-11-03T13:43:59.632Z,67.34
2022-11-03T13:44:59.664Z,67.14
2022-11-03T13:45:59.699Z,67.24
2022-11-03T13:46:59.731Z,67.53
2022-11-03T13:50:13.605Z,67.47
2022-11-03T13:50:59.937Z,67.47
2022-11-03T13:51:59.898Z,66.80
2022-11-03T13:56:05.243Z,67.27
2022-11-03T14:00:04.613Z,67.27
2022-11-03T14:01:00.242Z,67.18
2022-11-03T14:05:00.339Z,66.89
2022-11-03T14:06:00.372Z,67.37
2022-11-03T14:07:00.403Z,67.66
2022-11-03T14:08:00.437Z,67.66
2022-11-03T14:09:00.477Z,67.66
2022-11-03T14:10:03.697Z,67.56
2022-11-03T14:11:00.541Z,67.37
2022-11-03T14:12:00.576Z,67.76
2022-11-03T14:13:00.606Z,68.04
2022-11-03T14:14:00.641Z,67.94
2022-11-03T14:15:00.673Z,67.47
2022-11-03T14:16:00.757Z,67.18
2022-11-03T14:17:00.741Z,67.47
2022-11-03T14:18:00.777Z,67.85
2022-11-03T14:19:00.810Z,68.10
2022-11-03T14:20:04.484Z,67.66
2022-11-03T14:21:00.876Z,68.49
2022-11-03T14:22:00.911Z,68.52
2022-11-03T14:23:00.944Z,68.62
2022-11-03T14:24:00.978Z,68.23
2022-11-03T14:25:01.039Z,68.33
2022-11-03T14:26:14.165Z,68.13
2022-11-03T14:27:01.080Z,67.76
2022-11-03T14:28:01.199Z,67.66
2022-11-03T14:29:01.151Z,68.04
2022-11-03T14:30:01.196Z,68.04
2022-11-03T14:31:01.216Z,68.20
2022-11-03T14:32:01.252Z,68.87
2022-11-03T14:33:01.282Z,68.77
2022-11-03T14:34:01.318Z,68.68
2022-11-03T14:35:01.410Z,69.15
2022-11-03T14:36:01.413Z,69.15
2022-11-03T14:37:01.493Z,69.15
2022-11-03T14:38:01.452Z,69.54
2022-11-03T14:39:01.489Z,68.96
2022-11-03T14:40:01.522Z,69.25
2022-11-03T14:41:01.555Z,69.06
2022-11-03T14:42:01.589Z,69.06
2022-11-03T14:43:01.624Z,69.06
2022-11-03T14:44:01.656Z,69.25
2022-11-03T14:45:01.690Z,69.82
2022-11-03T14:46:01.864Z,70.30
2022-11-03T14:47:01.757Z,70.50